createdAt,value
2019-04-30T00:00:06.339Z,90.90
2019-04-30T00:02:42.552Z,90.70
2019-04-30T00:05:15.133Z,91.40
2019-04-30T00:07:46.088Z,91.40
2019-04-30T00:10:15.812Z,91.30
2019-04-30T00:12:46.541Z,91.20
2019-04-30T00:15:19.481Z,90.50
2019-04-30T00:17:52.846Z,91.50
2019-04-30T00:20:19.547Z,92.40
2019-04-30T00:22:50.442Z,91.00
2019-04-30T00:25:26.931Z,91.80
2019-04-30T00:27:52.243Z,92.40
2019-04-30T00:30:22.401Z,92.80
2019-04-30T00:32:52.374Z,94.00
2019-04-30T00:35:22.254Z,93.90
2019-04-30T00:37:57.530Z,93.60
2019-04-30T00:40:26.675Z,93.70
2019-04-30T00:42:55.886Z,92.60
2019-04-30T00:45:27.052Z,94.00
2019-04-30T00:47:56.989Z,94.20
2019-04-30T00:50:29.036Z,94.90
2019-04-30T00:52:58.446Z,95.30
2019-04-30T00:55:28.378Z,95.10
2019-04-30T00:57:58.291Z,96.00
2019-04-30T01:00:29.734Z,94.20
2019-04-30T01:03:10.155Z,95.70
2019-04-30T01:05:44.510Z,94.80
2019-04-30T01:08:11.652Z,95.40
2019-04-30T01:10:41.538Z,94.60
2019-04-30T01:13:12.135Z,95.70
2019-04-30T01:15:44.023Z,95.60
2019-04-30T01:18:13.703Z,96.80
2019-04-30T01:20:43.601Z,95.30
2019-04-30T01:23:16.319Z,96.80
2019-04-30T01:25:49.904Z,95.50
2019-04-30T01:28:22.740Z,96.10
2019-04-30T01:30:53.878Z,95.00
2019-04-30T01:33:21.592Z,95.90
2019-04-30T01:35:51.471Z,96.00
2019-04-30T01:38:21.370Z,96.30
2019-04-30T01:40:51.299Z,96.20
2019-04-30T01:43:30.580Z,96.80
2019-04-30T01:45:52.734Z,95.90
2019-04-30T01:48:22.580Z,97.50
2019-04-30T01:50:52.492Z,96.30
2019-04-30T01:53:22.362Z,96.80
2019-04-30T01:55:56.666Z,96.90
2019-04-30T01:58:33.277Z,97.20
2019-04-30T02:01:09.009Z,97.60
2019-04-30T02:03:40.037Z,97.40
2019-04-30T02:06:11.528Z,97.90
2019-04-30T02:08:41.613Z,96.80
2019-04-30T02:11:11.491Z,97.20
2019-04-30T02:13:41.346Z,97.00
2019-04-30T02:16:11.238Z,98.70
2019-04-30T02:18:41.323Z,97.90
2019-04-30T02:21:11.464Z,98.70
2019-04-30T02:23:41.496Z,98.70
2019-04-30T02:26:11.415Z,98.20
2019-04-30T02:28:41.297Z,98.40
2019-04-30T02:31:11.181Z,99.20
2019-04-30T02:33:43.604Z,98.70
2019-04-30T02:36:26.738Z,99.10
2019-04-30T02:39:02.310Z,98.50
2019-04-30T02:41:29.969Z,99.40
2019-04-30T02:44:01.142Z,99.20
2019-04-30T02:46:32.469Z,99.30
2019-04-30T02:49:03.160Z,99.10
2019-04-30T02:51:34.991Z,99.80
2019-04-30T02:54:09.784Z,99.90
2019-04-30T02:56:42.056Z,99.50
2019-04-30T02:59:11.913Z,99.90
2019-04-30T03:01:41.785Z,99.90
2019-04-30T03:04:11.707Z,99.90
2019-04-30T03:06:41.636Z,99.90
2019-04-30T03:09:11.540Z,99.90
2019-04-30T03:11:41.407Z,99.90
2019-04-30T03:14:11.270Z,99.90
2019-04-30T03:16:45.525Z,99.90
2019-04-30T03:19:19.497Z,99.90
2019-04-30T03:21:52.866Z,99.90
2019-04-30T03:24:22.845Z,99.90
2019-04-30T03:26:52.707Z,99.90
2019-04-30T03:29:30.359Z,99.90
2019-04-30T03:32:02.931Z,99.90
2019-04-30T03:34:33.059Z,99.90
2019-04-30T03:37:03.704Z,99.90
2019-04-30T03:39:34.140Z,99.90
2019-04-30T03:42:04.256Z,99.90
2019-04-30T03:44:34.166Z,99.90
2019-04-30T03:47:04.047Z,99.90
2019-04-30T03:49:33.946Z,99.90
2019-04-30T03:52:03.932Z,99.90
2019-04-30T03:54:33.831Z,99.90
2019-04-30T03:57:03.766Z,99.90
2019-04-30T03:59:33.613Z,99.90
2019-04-30T04:02:05.094Z,99.90
2019-04-30T04:04:36.526Z,99.90
2019-04-30T04:07:10.938Z,99.90
2019-04-30T04:09:42.363Z,99.90
2019-04-30T04:12:20.542Z,99.90
2019-04-30T04:14:51.235Z,99.90
2019-04-30T04:17:22.425Z,99.90
2019-04-30T04:19:52.297Z,99.90
2019-04-30T04:22:22.432Z,99.90
2019-04-30T04:24:52.462Z,99.90
2019-04-30T04:27:22.400Z,99.90
2019-04-30T04:29:52.355Z,99.90
2019-04-30T04:32:24.372Z,99.90
2019-04-30T04:34:53.752Z,99.70
2019-04-30T04:37:24.615Z,99.90
2019-04-30T04:39:54.540Z,99.90
2019-04-30T04:42:25.142Z,99.80
2019-04-30T04:44:55.165Z,99.50
2019-04-30T04:47:25.137Z,99.90
2019-04-30T04:49:55.046Z,99.90
2019-04-30T04:52:24.989Z,99.00
2019-04-30T04:54:55.022Z,99.50
2019-04-30T04:57:25.132Z,99.30
2019-04-30T04:59:55.116Z,98.90
2019-04-30T05:02:41.691Z,97.80
2019-04-30T05:05:12.187Z,98.30
2019-04-30T05:07:42.155Z,99.00
2019-04-30T05:10:12.135Z,98.50
2019-04-30T05:12:42.042Z,98.60
2019-04-30T05:15:12.145Z,98.40
2019-04-30T05:17:42.040Z,97.50
2019-04-30T05:20:12.043Z,97.70
2019-04-30T05:22:41.947Z,98.70
2019-04-30T05:25:11.849Z,97.50
2019-04-30T05:27:41.719Z,96.70
2019-04-30T05:30:12.470Z,97.20
2019-04-30T05:32:42.357Z,96.80
2019-04-30T05:35:12.266Z,96.30
2019-04-30T05:37:42.262Z,95.80
2019-04-30T05:40:12.538Z,97.10
2019-04-30T05:42:42.445Z,95.20
2019-04-30T05:45:13.033Z,95.90
2019-04-30T05:47:42.941Z,94.20
2019-04-30T05:50:13.747Z,94.60
2019-04-30T05:52:43.636Z,93.60
2019-04-30T05:55:14.108Z,92.50
2019-04-30T05:57:53.874Z,92.60
2019-04-30T06:00:18.897Z,94.80
2019-04-30T06:02:49.749Z,90.50
2019-04-30T06:05:19.955Z,93.40
2019-04-30T06:07:52.077Z,90.50
2019-04-30T06:10:22.930Z,92.00
2019-04-30T06:12:54.381Z,88.70
2019-04-30T06:15:39.109Z,89.40
2019-04-30T06:18:13.572Z,82.10
2019-04-30T06:20:40.683Z,84.10
2019-04-30T06:23:10.577Z,83.80
2019-04-30T06:25:55.301Z,79.80
2019-04-30T06:28:12.410Z,80.20
2019-04-30T06:30:42.482Z,85.20
2019-04-30T06:33:12.509Z,77.10
2019-04-30T06:35:42.542Z,74.60
2019-04-30T06:38:12.677Z,65.80
2019-04-30T06:40:43.661Z,70.50
2019-04-30T06:43:14.030Z,74.30
2019-04-30T06:45:44.830Z,70.70
2019-04-30T06:48:19.750Z,72.20
2019-04-30T06:50:49.417Z,65.30
2019-04-30T06:53:20.360Z,59.80
2019-04-30T06:55:50.291Z,61.00
2019-04-30T06:58:20.650Z,60.20
2019-04-30T07:00:50.653Z,61.90
2019-04-30T07:03:20.598Z,57.70
2019-04-30T07:05:50.650Z,59.30
2019-04-30T07:08:38.917Z,58.70
2019-04-30T07:11:07.443Z,57.10
2019-04-30T07:13:34.954Z,58.30
2019-04-30T07:16:04.841Z,56.40
2019-04-30T07:18:35.237Z,57.90
2019-04-30T07:21:05.285Z,56.20
2019-04-30T07:23:35.175Z,55.90
2019-04-30T07:26:05.308Z,57.20
2019-04-30T07:28:44.724Z,55.90
2019-04-30T07:31:11.405Z,55.60
2019-04-30T07:33:39.670Z,57.10
2019-04-30T07:36:09.872Z,56.50
2019-04-30T07:38:45.010Z,55.20
2019-04-30T07:41:11.502Z,56.80
2019-04-30T07:43:42.410Z,56.40
2019-04-30T07:46:12.343Z,55.40
2019-04-30T07:48:42.213Z,55.40
2019-04-30T07:51:12.460Z,55.60
2019-04-30T07:53:42.910Z,55.10
2019-04-30T07:56:23.922Z,53.60
2019-04-30T07:58:44.314Z,54.00
2019-04-30T08:01:14.303Z,54.80
2019-04-30T08:03:45.982Z,55.00
2019-04-30T08:06:19.003Z,52.80
2019-04-30T08:08:50.566Z,52.80
2019-04-30T08:11:26.069Z,52.50
2019-04-30T08:13:51.516Z,55.00
2019-04-30T08:16:21.687Z,52.70
2019-04-30T08:18:51.621Z,50.90
2019-04-30T08:21:22.505Z,52.90
2019-04-30T08:23:52.428Z,51.80
2019-04-30T08:26:22.323Z,51.50
2019-04-30T08:28:52.204Z,50.00
2019-04-30T08:31:23.168Z,53.30
2019-04-30T08:33:53.020Z,52.00
2019-04-30T08:36:22.936Z,51.40
2019-04-30T08:38:53.036Z,51.00
2019-04-30T08:41:22.906Z,49.50
2019-04-30T08:43:52.832Z,51.30
2019-04-30T08:46:22.696Z,50.00
2019-04-30T08:48:53.805Z,49.20
2019-04-30T08:51:23.854Z,48.80
2019-04-30T08:53:53.815Z,48.70
2019-04-30T08:56:23.719Z,48.80
2019-04-30T08:58:54.950Z,49.80
2019-04-30T09:01:24.898Z,50.20
2019-04-30T09:03:54.803Z,47.80
2019-04-30T09:06:25.714Z,46.60
2019-04-30T09:08:55.744Z,48.40
2019-04-30T09:11:32.245Z,47.40
2019-04-30T09:13:58.517Z,49.40
2019-04-30T09:16:29.477Z,48.50
2019-04-30T09:19:01.267Z,48.50
2019-04-30T09:21:31.132Z,47.70
2019-04-30T09:24:01.055Z,48.20
2019-04-30T09:26:30.927Z,48.20
2019-04-30T09:29:00.845Z,47.00
2019-04-30T09:31:30.738Z,48.10
2019-04-30T09:34:01.046Z,45.60
2019-04-30T09:36:31.118Z,45.00
2019-04-30T09:39:01.652Z,45.50
2019-04-30T09:41:33.307Z,46.50
2019-04-30T09:44:03.303Z,44.90
2019-04-30T09:46:33.193Z,47.80
2019-04-30T09:49:03.129Z,47.20
2019-04-30T09:51:33.384Z,45.40
2019-04-30T09:54:04.483Z,47.50
2019-04-30T09:56:34.656Z,47.60
2019-04-30T09:59:04.746Z,46.70
2019-04-30T10:01:34.666Z,46.60
2019-04-30T10:04:04.997Z,46.30
2019-04-30T10:06:39.855Z,46.60
2019-04-30T10:09:09.705Z,46.60
2019-04-30T10:11:59.584Z,46.10
2019-04-30T10:14:29.512Z,46.40
2019-04-30T10:17:00.964Z,45.60
2019-04-30T10:19:30.895Z,45.10
2019-04-30T10:22:00.809Z,44.50
2019-04-30T10:24:30.657Z,43.60
2019-04-30T10:27:02.557Z,44.20
2019-04-30T10:29:32.579Z,43.30
2019-04-30T10:32:02.558Z,43.60
2019-04-30T10:34:32.464Z,46.30
2019-04-30T10:37:02.938Z,44.20
2019-04-30T10:39:33.367Z,44.10
2019-04-30T10:42:03.773Z,43.20
2019-04-30T10:44:33.689Z,45.20
2019-04-30T10:47:03.615Z,41.60
2019-04-30T10:49:33.574Z,43.70
2019-04-30T10:52:03.526Z,40.50
2019-04-30T10:54:33.385Z,40.60
2019-04-30T10:57:03.308Z,43.10
2019-04-30T10:59:33.209Z,43.60
2019-04-30T11:02:03.095Z,40.30
2019-04-30T11:04:33.074Z,40.90
2019-04-30T11:07:03.061Z,41.30
2019-04-30T11:09:34.381Z,43.80
2019-04-30T11:12:05.078Z,43.40
2019-04-30T11:14:34.988Z,40.60
2019-04-30T11:17:05.204Z,43.10
2019-04-30T11:19:35.377Z,42.60
2019-04-30T11:22:05.656Z,42.10
2019-04-30T11:24:40.979Z,43.10
2019-04-30T11:27:07.561Z,39.80
2019-04-30T11:29:39.460Z,41.10
2019-04-30T11:32:14.268Z,41.90
2019-04-30T11:34:44.548Z,41.50
2019-04-30T11:37:14.526Z,42.30
2019-04-30T11:39:44.662Z,41.80
2019-04-30T11:42:14.679Z,41.90
2019-04-30T11:44:44.609Z,41.60
2019-04-30T11:47:26.031Z,40.80
2019-04-30T11:49:55.974Z,41.90
2019-04-30T11:52:26.077Z,41.20
2019-04-30T11:54:56.017Z,41.50
2019-04-30T11:57:26.371Z,40.90
2019-04-30T11:59:56.263Z,41.00
2019-04-30T12:02:33.749Z,41.80
2019-04-30T12:05:05.317Z,41.80
2019-04-30T12:07:50.692Z,39.80
2019-04-30T12:10:34.309Z,42.40
2019-04-30T12:13:04.396Z,39.20
2019-04-30T12:15:35.040Z,41.90
2019-04-30T12:18:05.007Z,42.40
2019-04-30T12:20:34.944Z,39.60
2019-04-30T12:23:04.839Z,40.80
2019-04-30T12:25:34.754Z,41.60
2019-04-30T12:28:04.736Z,39.10
2019-04-30T12:30:34.686Z,41.70
2019-04-30T12:33:04.598Z,39.90
2019-04-30T12:35:34.512Z,40.50
2019-04-30T12:38:04.377Z,41.40
2019-04-30T12:40:34.297Z,40.00
2019-04-30T12:43:04.480Z,41.60
2019-04-30T12:45:34.405Z,41.00
2019-04-30T12:48:06.294Z,40.60
2019-04-30T12:50:40.583Z,40.00
2019-04-30T12:53:12.638Z,42.00
2019-04-30T12:55:48.917Z,42.90
2019-04-30T12:58:20.756Z,41.90
2019-04-30T13:00:50.484Z,40.40
2019-04-30T13:03:20.543Z,41.60
2019-04-30T13:05:51.468Z,41.70
2019-04-30T13:08:22.393Z,40.10
2019-04-30T13:10:53.155Z,40.50
2019-04-30T13:13:23.841Z,40.40
2019-04-30T13:15:54.118Z,39.40
2019-04-30T13:18:24.056Z,40.40
2019-04-30T13:20:54.008Z,39.40
2019-04-30T13:23:23.953Z,38.80
2019-04-30T13:25:53.834Z,38.80
2019-04-30T13:28:25.313Z,38.50
2019-04-30T13:30:55.311Z,39.70
2019-04-30T13:33:29.769Z,39.20
2019-04-30T13:35:59.779Z,38.80
2019-04-30T13:38:45.129Z,39.80
2019-04-30T13:41:13.007Z,39.30
2019-04-30T13:43:54.592Z,39.80
2019-04-30T13:46:25.215Z,38.60
2019-04-30T13:48:55.147Z,40.20
2019-04-30T13:51:25.089Z,40.80
2019-04-30T13:53:55.131Z,38.50
2019-04-30T13:56:25.021Z,38.30
2019-04-30T13:58:54.925Z,37.80
2019-04-30T14:01:26.139Z,37.70
2019-04-30T14:04:12.833Z,39.70
2019-04-30T14:06:44.415Z,38.70
2019-04-30T14:09:31.425Z,40.70
2019-04-30T14:12:01.537Z,39.50
2019-04-30T14:14:31.416Z,39.40
2019-04-30T14:17:01.662Z,40.30
2019-04-30T14:19:31.685Z,38.50
2019-04-30T14:22:01.608Z,38.30
2019-04-30T14:24:32.535Z,39.70
2019-04-30T14:27:03.435Z,39.40
2019-04-30T14:29:33.346Z,38.80
2019-04-30T14:32:03.318Z,37.90
2019-04-30T14:34:33.244Z,39.30
2019-04-30T14:37:03.149Z,37.70
2019-04-30T14:39:34.083Z,38.30
2019-04-30T14:42:04.713Z,39.20
2019-04-30T14:44:36.867Z,40.00
2019-04-30T14:47:15.585Z,38.70
2019-04-30T14:49:59.088Z,39.70
2019-04-30T14:52:19.319Z,38.70
2019-04-30T14:54:50.913Z,38.20
2019-04-30T14:57:28.526Z,38.80
2019-04-30T15:00:02.682Z,40.10
2019-04-30T15:02:44.721Z,39.50
2019-04-30T15:05:14.888Z,38.80
2019-04-30T15:07:44.900Z,38.90
2019-04-30T15:10:16.092Z,39.10
2019-04-30T15:12:46.202Z,38.40
2019-04-30T15:15:16.286Z,39.70
2019-04-30T15:17:49.199Z,40.00
2019-04-30T15:20:19.695Z,39.30
2019-04-30T15:23:09.909Z,40.00
2019-04-30T15:25:39.862Z,38.40
2019-04-30T15:28:09.895Z,38.80
2019-04-30T15:30:42.009Z,37.80
2019-04-30T15:33:15.814Z,38.80
2019-04-30T15:35:45.673Z,39.50
2019-04-30T15:38:15.705Z,39.70
2019-04-30T15:40:45.635Z,39.70
2019-04-30T15:43:15.626Z,39.00
2019-04-30T15:45:45.700Z,38.90
2019-04-30T15:48:15.852Z,38.70
2019-04-30T15:50:45.854Z,37.80
2019-04-30T15:53:15.775Z,38.30
2019-04-30T15:55:45.661Z,38.40
2019-04-30T15:58:20.045Z,39.30
2019-04-30T16:00:50.171Z,39.40
2019-04-30T16:03:21.750Z,40.20
2019-04-30T16:05:53.341Z,39.40
2019-04-30T16:08:24.914Z,38.90
2019-04-30T16:10:56.360Z,38.30
2019-04-30T16:13:31.192Z,39.40
2019-04-30T16:16:01.186Z,39.70
2019-04-30T16:18:32.893Z,39.50
2019-04-30T16:21:02.785Z,39.40
2019-04-30T16:23:32.846Z,40.10
2019-04-30T16:26:02.785Z,39.10
2019-04-30T16:28:32.696Z,40.10
2019-04-30T16:31:02.577Z,40.10
2019-04-30T16:33:32.568Z,41.00
2019-04-30T16:36:02.660Z,37.90
2019-04-30T16:38:32.527Z,39.90
2019-04-30T16:41:02.438Z,40.80
2019-04-30T16:43:32.430Z,40.80
2019-04-30T16:46:02.379Z,41.30
2019-04-30T16:48:32.525Z,40.80
2019-04-30T16:51:02.522Z,43.20
2019-04-30T16:53:32.725Z,42.30
2019-04-30T16:56:02.627Z,42.10
2019-04-30T16:58:34.223Z,41.70
2019-04-30T17:01:05.194Z,42.60
2019-04-30T17:03:38.707Z,43.30
2019-04-30T17:06:12.914Z,44.10
2019-04-30T17:08:44.501Z,44.30
2019-04-30T17:11:16.271Z,45.40
2019-04-30T17:13:47.804Z,45.70
2019-04-30T17:16:19.556Z,46.50
2019-04-30T17:18:50.214Z,47.20
2019-04-30T17:21:20.328Z,46.90
2019-04-30T17:23:50.990Z,46.90
2019-04-30T17:26:21.085Z,47.30
2019-04-30T17:28:51.072Z,47.70
2019-04-30T17:31:20.986Z,47.80
2019-04-30T17:33:50.904Z,48.10
2019-04-30T17:36:20.864Z,48.20
2019-04-30T17:38:50.799Z,48.40
2019-04-30T17:41:21.904Z,48.80
2019-04-30T17:43:51.825Z,48.20
2019-04-30T17:46:21.980Z,49.00
2019-04-30T17:48:51.969Z,49.80
2019-04-30T17:51:22.954Z,49.60
2019-04-30T17:54:10.983Z,50.40
2019-04-30T17:56:41.746Z,50.10
2019-04-30T17:59:12.162Z,50.40
2019-04-30T18:01:44.044Z,50.60
2019-04-30T18:04:14.006Z,51.00
2019-04-30T18:06:44.250Z,51.00
2019-04-30T18:09:14.420Z,51.60
2019-04-30T18:11:44.356Z,52.00
2019-04-30T18:14:15.488Z,51.80
2019-04-30T18:16:45.407Z,52.10
2019-04-30T18:19:19.826Z,52.40
2019-04-30T18:21:54.282Z,52.30
2019-04-30T18:24:39.354Z,52.80
2019-04-30T18:27:20.953Z,53.00
2019-04-30T18:29:49.727Z,52.90
2019-04-30T18:32:21.285Z,53.40
2019-04-30T18:34:51.203Z,53.90
2019-04-30T18:37:21.114Z,53.70
2019-04-30T18:39:50.998Z,54.60
2019-04-30T18:42:20.875Z,54.70
2019-04-30T18:44:50.787Z,54.80
2019-04-30T18:47:21.719Z,54.90
2019-04-30T18:49:51.761Z,55.50
2019-04-30T18:52:21.635Z,55.50
2019-04-30T18:54:51.586Z,55.90
2019-04-30T18:57:21.466Z,56.50
2019-04-30T18:59:51.581Z,56.20
2019-04-30T19:02:21.479Z,56.60
2019-04-30T19:04:51.455Z,56.90
2019-04-30T19:07:41.305Z,57.20
2019-04-30T19:10:12.942Z,58.60
2019-04-30T19:12:50.423Z,58.00
2019-04-30T19:16:08.869Z,58.60
2019-04-30T19:18:19.878Z,58.80
2019-04-30T19:20:51.390Z,58.60
2019-04-30T19:23:21.394Z,59.60
2019-04-30T19:25:52.403Z,58.90
2019-04-30T19:28:22.279Z,59.20
2019-04-30T19:30:57.684Z,60.80
2019-04-30T19:33:24.363Z,60.80
2019-04-30T19:35:54.286Z,61.80
2019-04-30T19:38:24.239Z,61.40
2019-04-30T19:40:54.145Z,62.40
2019-04-30T19:43:24.034Z,62.70
2019-04-30T19:45:53.913Z,64.20
2019-04-30T19:48:23.857Z,63.70
2019-04-30T19:50:54.731Z,63.30
2019-04-30T19:53:24.660Z,62.90
2019-04-30T19:55:54.578Z,64.00
2019-04-30T19:58:33.264Z,65.10
2019-04-30T20:00:56.035Z,65.10
2019-04-30T20:03:25.914Z,65.60
2019-04-30T20:05:55.807Z,66.60
2019-04-30T20:08:25.731Z,65.20
2019-04-30T20:10:55.629Z,66.10
2019-04-30T20:13:36.224Z,67.50
2019-04-30T20:15:59.420Z,68.00
2019-04-30T20:18:29.392Z,68.10
2019-04-30T20:21:01.221Z,67.90
2019-04-30T20:23:31.315Z,68.70
2019-04-30T20:26:01.336Z,69.60
2019-04-30T20:28:38.915Z,69.10
2019-04-30T20:31:02.841Z,69.90
2019-04-30T20:33:32.739Z,70.80
2019-04-30T20:36:02.746Z,70.50
2019-04-30T20:38:43.001Z,72.00
2019-04-30T20:41:13.017Z,69.50
2019-04-30T20:43:42.946Z,72.60
2019-04-30T20:46:12.851Z,70.90
2019-04-30T20:48:42.749Z,73.50
2019-04-30T20:51:12.938Z,72.20
2019-04-30T20:53:42.814Z,72.10
2019-04-30T20:56:13.812Z,70.90
2019-04-30T20:58:54.939Z,72.60
2019-04-30T21:01:15.418Z,73.30
2019-04-30T21:03:45.286Z,73.20
2019-04-30T21:06:15.259Z,74.80
2019-04-30T21:08:45.214Z,73.50
2019-04-30T21:11:15.134Z,75.60
2019-04-30T21:13:45.024Z,74.00
2019-04-30T21:16:14.855Z,76.80
2019-04-30T21:18:45.066Z,76.50
2019-04-30T21:21:14.956Z,77.10
2019-04-30T21:23:44.935Z,75.00
2019-04-30T21:26:14.847Z,78.00
2019-04-30T21:28:44.710Z,78.70
2019-04-30T21:31:34.237Z,78.20
2019-04-30T21:34:11.997Z,77.70
2019-04-30T21:36:42.030Z,79.20
2019-04-30T21:39:11.891Z,78.00
2019-04-30T21:41:41.812Z,77.60
2019-04-30T21:44:11.741Z,77.40
2019-04-30T21:46:41.599Z,78.00
2019-04-30T21:49:11.476Z,80.20
2019-04-30T21:51:41.394Z,79.50
2019-04-30T21:54:11.232Z,75.20
2019-04-30T21:56:41.618Z,78.40
2019-04-30T21:59:23.553Z,77.20
2019-04-30T22:01:43.048Z,79.60
2019-04-30T22:04:13.198Z,79.60
2019-04-30T22:06:43.075Z,80.00
2019-04-30T22:09:13.261Z,79.40
2019-04-30T22:11:44.675Z,78.70
2019-04-30T22:14:14.587Z,79.40
2019-04-30T22:16:45.531Z,80.90
2019-04-30T22:19:15.421Z,83.20
2019-04-30T22:21:45.405Z,80.20
2019-04-30T22:24:15.501Z,81.10
2019-04-30T22:26:45.365Z,83.70
2019-04-30T22:29:15.241Z,83.50
2019-04-30T22:31:45.100Z,83.70
2019-04-30T22:34:14.953Z,83.40
2019-04-30T22:36:48.658Z,85.60
2019-04-30T22:39:25.574Z,86.50
2019-04-30T22:42:03.362Z,84.00
2019-04-30T22:44:33.311Z,84.00
2019-04-30T22:47:03.176Z,82.50
2019-04-30T22:49:33.042Z,82.60
2019-04-30T22:52:03.057Z,84.40
2019-04-30T22:54:33.003Z,85.00
2019-04-30T22:57:02.875Z,86.30
2019-04-30T22:59:33.757Z,86.30
2019-04-30T23:02:06.185Z,87.00
2019-04-30T23:04:37.650Z,86.20
2019-04-30T23:07:07.509Z,85.60
2019-04-30T23:09:37.433Z,86.40
2019-04-30T23:12:07.412Z,86.80
2019-04-30T23:14:37.289Z,87.50
2019-04-30T23:17:07.395Z,86.50
2019-04-30T23:19:37.358Z,87.40
2019-04-30T23:22:07.310Z,88.50
2019-04-30T23:24:37.195Z,88.30
2019-04-30T23:27:07.068Z,88.40
2019-04-30T23:29:36.990Z,89.80
2019-04-30T23:32:06.849Z,90.40
2019-04-30T23:34:36.750Z,89.40
2019-04-30T23:37:06.634Z,90.10
2019-04-30T23:39:36.585Z,90.00
2019-04-30T23:42:06.540Z,90.80
2019-04-30T23:44:36.422Z,90.30
2019-04-30T23:47:06.362Z,90.20
2019-04-30T23:49:36.200Z,90.20
2019-04-30T23:52:06.082Z,90.90
2019-04-30T23:54:36.934Z,90.60
2019-04-30T23:57:06.848Z,91.00
2019-04-30T23:59:36.745Z,91.30
